sensor_id;sensor_type;location;lat;lon;timestamp;pressure;altitude;pressure_sealevel;temperature;humidity
28630;BME280;15817;42.130;24.762;2022-07-10T00:00:48;99485.56;;;21.90;65.19
28630;BME280;15817;42.130;24.762;2022-07-10T00:03:17;99485.56;;;21.90;65.05
28630;BME280;15817;42.130;24.762;2022-07-10T00:06:05;99467.03;;;21.83;65.29
28630;BME280;15817;42.130;24.762;2022-07-10T00:08:55;99467.81;;;21.85;65.50
28630;BME280;15817;42.130;24.762;2022-07-10T00:11:29;99455.31;;;21.82;65.73
28630;BME280;15817;42.130;24.762;2022-07-10T00:13:57;99471.31;;;21.87;65.38
28630;BME280;15817;42.130;24.762;2022-07-10T00:16:38;99473.06;;;21.88;65.59
28630;BME280;15817;42.130;24.762;2022-07-10T00:19:07;99456.19;;;21.83;65.67
28630;BME280;15817;42.130;24.762;2022-07-10T00:21:38;99462.84;;;21.77;65.96
28630;BME280;15817;42.130;24.762;2022-07-10T00:24:07;99462.56;;;21.82;65.98
28630;BME280;15817;42.130;24.762;2022-07-10T00:26:33;99460.41;;;21.88;66.09
28630;BME280;15817;42.130;24.762;2022-07-10T00:28:59;99463.34;;;21.84;65.76
28630;BME280;15817;42.130;24.762;2022-07-10T00:31:30;99453.78;;;21.78;65.57
28630;BME280;15817;42.130;24.762;2022-07-10T00:33:59;99461.44;;;21.86;65.76
28630;BME280;15817;42.130;24.762;2022-07-10T00:36:47;99462.22;;;21.88;65.65
28630;BME280;15817;42.130;24.762;2022-07-10T00:39:13;99455.31;;;21.82;65.52
28630;BME280;15817;42.130;24.762;2022-07-10T00:41:44;99453.31;;;21.86;65.11
28630;BME280;15817;42.130;24.762;2022-07-10T00:44:10;99440.25;;;21.78;65.29
28630;BME280;15817;42.130;24.762;2022-07-10T00:46:39;99455.41;;;21.81;65.07
28630;BME280;15817;42.130;24.762;2022-07-10T00:49:06;99434.75;;;21.80;64.60
28630;BME280;15817;42.130;24.762;2022-07-10T00:51:37;99437.44;;;21.80;64.75
28630;BME280;15817;42.130;24.762;2022-07-10T00:54:10;99439.28;;;21.79;64.39
28630;BME280;15817;42.130;24.762;2022-07-10T00:56:38;99427.91;;;21.73;64.75
28630;BME280;15817;42.130;24.762;2022-07-10T00:59:05;99430.63;;;21.73;64.33
28630;BME280;15817;42.130;24.762;2022-07-10T01:01:32;99427.03;;;21.72;64.36
28630;BME280;15817;42.130;24.762;2022-07-10T01:03:58;99423.66;;;21.68;64.41
28630;BME280;15817;42.130;24.762;2022-07-10T01:06:26;99423.53;;;21.70;64.29
28630;BME280;15817;42.130;24.762;2022-07-10T01:08:55;99435.00;;;21.75;64.14
28630;BME280;15817;42.130;24.762;2022-07-10T01:11:22;99427.03;;;21.72;63.90
28630;BME280;15817;42.130;24.762;2022-07-10T01:13:49;99428.72;;;21.75;63.71
28630;BME280;15817;42.130;24.762;2022-07-10T01:16:15;99422.59;;;21.71;63.77
28630;BME280;15817;42.130;24.762;2022-07-10T01:18:48;99422.25;;;21.77;63.78
28630;BME280;15817;42.130;24.762;2022-07-10T01:21:28;99431.03;;;21.81;63.63
28630;BME280;15817;42.130;24.762;2022-07-10T01:24:01;99418.03;;;21.72;63.43
28630;BME280;15817;42.130;24.762;2022-07-10T01:26:29;99427.25;;;21.69;63.53
28630;BME280;15817;42.130;24.762;2022-07-10T01:28:56;99428.88;;;21.72;63.30
28630;BME280;15817;42.130;24.762;2022-07-10T01:31:27;99431.16;;;21.79;63.77
28630;BME280;15817;42.130;24.762;2022-07-10T01:33:56;99417.09;;;21.73;63.54
28630;BME280;15817;42.130;24.762;2022-07-10T01:36:22;99425.81;;;21.78;63.26
28630;BME280;15817;42.130;24.762;2022-07-10T01:38:55;99418.66;;;21.77;63.61
28630;BME280;15817;42.130;24.762;2022-07-10T01:41:25;99408.28;;;21.69;63.70
28630;BME280;15817;42.130;24.762;2022-07-10T01:43:51;99416.22;;;21.72;63.47
28630;BME280;15817;42.130;24.762;2022-07-10T01:46:20;99407.50;;;21.67;63.36
28630;BME280;15817;42.130;24.762;2022-07-10T01:48:47;99401.31;;;21.65;63.54
28630;BME280;15817;42.130;24.762;2022-07-10T01:51:18;99409.50;;;21.63;63.64
28630;BME280;15817;42.130;24.762;2022-07-10T01:53:43;99397.03;;;21.61;63.48
28630;BME280;15817;42.130;24.762;2022-07-10T01:56:14;99405.84;;;21.64;63.53
28630;BME280;15817;42.130;24.762;2022-07-10T01:58:50;99392.66;;;21.58;63.46
28630;BME280;15817;42.130;24.762;2022-07-10T02:01:20;99395.38;;;21.58;63.28
28630;BME280;15817;42.130;24.762;2022-07-10T02:03:46;99397.03;;;21.61;63.36
28630;BME280;15817;42.130;24.762;2022-07-10T02:06:33;99394.41;;;21.59;63.32
28630;BME280;15817;42.130;24.762;2022-07-10T02:08:59;99380.94;;;21.58;63.45
28630;BME280;15817;42.130;24.762;2022-07-10T02:11:25;99382.13;;;21.54;63.46
28630;BME280;15817;42.130;24.762;2022-07-10T02:13:51;99394.69;;;21.55;63.60
28630;BME280;15817;42.130;24.762;2022-07-10T02:16:17;99402.91;;;21.53;63.33
28630;BME280;15817;42.130;24.762;2022-07-10T02:18:43;99401.84;;;21.56;63.25
28630;BME280;15817;42.130;24.762;2022-07-10T02:21:14;99399.66;;;21.47;63.74
28630;BME280;15817;42.130;24.762;2022-07-10T02:23:45;99392.63;;;21.44;63.73
28630;BME280;15817;42.130;24.762;2022-07-10T02:26:11;99398.69;;;21.48;63.73
28630;BME280;15817;42.130;24.762;2022-07-10T02:28:49;99399.78;;;21.45;63.70
28630;BME280;15817;42.130;24.762;2022-07-10T02:31:18;99400.91;;;21.41;63.99
28630;BME280;15817;42.130;24.762;2022-07-10T02:33:47;99403.69;;;21.40;63.65
28630;BME280;15817;42.130;24.762;2022-07-10T02:36:15;99408.38;;;21.36;63.53
28630;BME280;15817;42.130;24.762;2022-07-10T02:38:46;99397.78;;;21.33;63.87
28630;BME280;15817;42.130;24.762;2022-07-10T02:41:20;99399.06;;;21.26;63.49
28630;BME280;15817;42.130;24.762;2022-07-10T02:43:59;99396.44;;;21.24;63.25
28630;BME280;15817;42.130;24.762;2022-07-10T02:46:25;99385.81;;;21.21;63.39
28630;BME280;15817;42.130;24.762;2022-07-10T02:48:51;99408.75;;;21.30;63.32
28630;BME280;15817;42.130;24.762;2022-07-10T02:51:23;99405.19;;;21.29;63.72
28630;BME280;15817;42.130;24.762;2022-07-10T02:53:50;99401.75;;;21.26;63.38
28630;BME280;15817;42.130;24.762;2022-07-10T02:56:18;99406.59;;;21.21;63.76
28630;BME280;15817;42.130;24.762;2022-07-10T02:58:44;99405.78;;;21.19;63.55
28630;BME280;15817;42.130;24.762;2022-07-10T03:01:10;99402.91;;;21.22;63.83
28630;BME280;15817;42.130;24.762;2022-07-10T03:03:39;99403.13;;;21.17;64.03
28630;BME280;15817;42.130;24.762;2022-07-10T03:06:05;99406.50;;;21.22;64.14
28630;BME280;15817;42.130;24.762;2022-07-10T03:08:41;99414.63;;;21.22;64.05
28630;BME280;15817;42.130;24.762;2022-07-10T03:11:14;99415.50;;;21.23;64.04
28630;BME280;15817;42.130;24.762;2022-07-10T03:13:43;99406.19;;;21.11;64.33
28630;BME280;15817;42.130;24.762;2022-07-10T03:16:24;99423.09;;;21.15;64.80
28630;BME280;15817;42.130;24.762;2022-07-10T03:18:53;99410.03;;;21.07;64.79
28630;BME280;15817;42.130;24.762;2022-07-10T03:21:24;99407.47;;;21.04;64.92
28630;BME280;15817;42.130;24.762;2022-07-10T03:24:12;99406.78;;;21.01;65.18
28630;BME280;15817;42.130;24.762;2022-07-10T03:27:15;99417.09;;;21.10;65.22
28630;BME280;15817;42.130;24.762;2022-07-10T03:30:03;99403.03;;;21.03;65.36
28630;BME280;15817;42.130;24.762;2022-07-10T03:32:47;99404.06;;;21.01;65.34
28630;BME280;15817;42.130;24.762;2022-07-10T03:35:16;99390.03;;;20.94;65.66
28630;BME280;15817;42.130;24.762;2022-07-10T03:37:45;99388.22;;;20.94;66.08
28630;BME280;15817;42.130;24.762;2022-07-10T03:40:14;99404.06;;;21.01;66.08
28630;BME280;15817;42.130;24.762;2022-07-10T03:42:43;99380.09;;;20.94;66.06
28630;BME280;15817;42.130;24.762;2022-07-10T03:45:09;99387.50;;;20.91;66.67
28630;BME280;15817;42.130;24.762;2022-07-10T03:47:38;99393.78;;;20.91;66.82
28630;BME280;15817;42.130;24.762;2022-07-10T03:50:11;99383.25;;;20.87;66.94
28630;BME280;15817;42.130;24.762;2022-07-10T03:52:46;99379.56;;;20.88;67.16
28630;BME280;15817;42.130;24.762;2022-07-10T03:55:17;99377.31;;;20.96;67.33
28630;BME280;15817;42.130;24.762;2022-07-10T03:57:50;99385.25;;;20.99;67.37
28630;BME280;15817;42.130;24.762;2022-07-10T04:00:30;99386.22;;;20.98;67.34
28630;BME280;15817;42.130;24.762;2022-07-10T04:03:07;99389.25;;;20.92;67.43
28630;BME280;15817;42.130;24.762;2022-07-10T04:05:41;99399.72;;;20.98;67.46
28630;BME280;15817;42.130;24.762;2022-07-10T04:08:22;99393.69;;;20.93;67.56
28630;BME280;15817;42.130;24.762;2022-07-10T04:10:48;99395.38;;;20.95;67.37
28630;BME280;15817;42.130;24.762;2022-07-10T04:13:19;99394.66;;;20.92;67.32
28630;BME280;15817;42.130;24.762;2022-07-10T04:15:51;99384.09;;;20.87;67.75
28630;BME280;15817;42.130;24.762;2022-07-10T04:18:23;99399.09;;;20.93;67.53
28630;BME280;15817;42.130;24.762;2022-07-10T04:20:52;99385.94;;;20.87;67.96
28630;BME280;15817;42.130;24.762;2022-07-10T04:23:20;99380.34;;;20.90;68.02
28630;BME280;15817;42.130;24.762;2022-07-10T04:25:53;99382.16;;;20.89;67.84
28630;BME280;15817;42.130;24.762;2022-07-10T04:28:21;99383.25;;;20.87;67.89
28630;BME280;15817;42.130;24.762;2022-07-10T04:30:56;99379.56;;;20.88;68.19
28630;BME280;15817;42.130;24.762;2022-07-10T04:33:43;99371.47;;;20.88;67.84
28630;BME280;15817;42.130;24.762;2022-07-10T04:36:27;99373.81;;;20.94;67.81
28630;BME280;15817;42.130;24.762;2022-07-10T04:39:15;99388.72;;;21.01;67.94
28630;BME280;15817;42.130;24.762;2022-07-10T04:41:45;99405.81;;;21.02;67.90
28630;BME280;15817;42.130;24.762;2022-07-10T04:44:13;99392.50;;;20.99;67.75
28630;BME280;15817;42.130;24.762;2022-07-10T04:46:53;99398.84;;;20.98;67.62
28630;BME280;15817;42.130;24.762;2022-07-10T04:52:42;99405.75;;;21.03;67.58
28630;BME280;15817;42.130;24.762;2022-07-10T04:55:25;99391.63;;;20.98;67.23
28630;BME280;15817;42.130;24.762;2022-07-10T04:58:00;99398.50;;;21.04;67.32
28630;BME280;15817;42.130;24.762;2022-07-10T05:00:47;99397.72;;;21.02;67.81
28630;BME280;15817;42.130;24.762;2022-07-10T05:03:16;99409.31;;;21.04;67.68
28630;BME280;15817;42.130;24.762;2022-07-10T05:05:50;99393.25;;;21.01;67.42
28630;BME280;15817;42.130;24.762;2022-07-10T05:08:22;99406.59;;;21.04;67.74
28630;BME280;15817;42.130;24.762;2022-07-10T05:10:51;99400.41;;;21.02;67.79
28630;BME280;15817;42.130;24.762;2022-07-10T05:13:17;99399.38;;;21.04;67.92
28630;BME280;15817;42.130;24.762;2022-07-10T05:19:48;99422.81;;;21.21;68.28
28630;BME280;15817;42.130;24.762;2022-07-10T05:22:30;99404.09;;;21.16;68.09
28630;BME280;15817;42.130;24.762;2022-07-10T05:24:58;99406.50;;;21.22;68.27
28630;BME280;15817;42.130;24.762;2022-07-10T05:27:31;99416.09;;;21.28;68.23
28630;BME280;15817;42.130;24.762;2022-07-10T05:30:14;99418.53;;;21.33;68.22
28630;BME280;15817;42.130;24.762;2022-07-10T05:33:00;99411.47;;;21.30;68.32
28630;BME280;15817;42.130;24.762;2022-07-10T05:35:26;99411.38;;;21.31;68.37
28630;BME280;15817;42.130;24.762;2022-07-10T05:38:01;99419.75;;;21.43;68.68
28630;BME280;15817;42.130;24.762;2022-07-10T05:40:56;99423.06;;;21.48;68.56
28630;BME280;15817;42.130;24.762;2022-07-10T05:43:22;99411.97;;;21.52;68.65
28630;BME280;15817;42.130;24.762;2022-07-10T05:45:48;99418.44;;;21.50;68.59
28630;BME280;15817;42.130;24.762;2022-07-10T05:48:27;99425.34;;;21.55;67.89
28630;BME280;15817;42.130;24.762;2022-07-10T05:51:15;99409.25;;;21.52;67.95
28630;BME280;15817;42.130;24.762;2022-07-10T05:53:51;99412.38;;;21.60;67.64
28630;BME280;15817;42.130;24.762;2022-07-10T05:56:40;99407.94;;;21.59;67.75
28630;BME280;15817;42.130;24.762;2022-07-10T06:02:44;99406.41;;;21.85;66.80
28630;BME280;15817;42.130;24.762;2022-07-10T06:05:18;99399.16;;;21.86;66.26
28630;BME280;15817;42.130;24.762;2022-07-10T06:07:48;99402.47;;;21.91;66.37
28630;BME280;15817;42.130;24.762;2022-07-10T06:10:23;99407.59;;;21.95;66.80
28630;BME280;15817;42.130;24.762;2022-07-10T06:12:49;99413.81;;;21.97;66.68
28630;BME280;15817;42.130;24.762;2022-07-10T06:19:13;99412.78;;;22.00;66.69
28630;BME280;15817;42.130;24.762;2022-07-10T06:21:48;99418.91;;;22.03;66.60
28630;BME280;15817;42.130;24.762;2022-07-10T06:24:41;99406.19;;;22.04;66.60
28630;BME280;15817;42.130;24.762;2022-07-10T06:27:08;99421.84;;;22.15;66.87
28630;BME280;15817;42.130;24.762;2022-07-10T06:29:44;99413.59;;;22.16;66.63
28630;BME280;15817;42.130;24.762;2022-07-10T06:32:33;99415.16;;;22.20;66.84
28630;BME280;15817;42.130;24.762;2022-07-10T06:35:11;99414.09;;;22.23;66.60
28630;BME280;15817;42.130;24.762;2022-07-10T06:37:37;99409.47;;;22.25;65.43
28630;BME280;15817;42.130;24.762;2022-07-10T06:43:05;99416.94;;;22.35;66.04
28630;BME280;15817;42.130;24.762;2022-07-10T06:45:31;99430.78;;;22.45;66.47
28630;BME280;15817;42.130;24.762;2022-07-10T06:47:57;99417.81;;;22.50;66.28
28630;BME280;15817;42.130;24.762;2022-07-10T06:53:58;99413.69;;;22.59;66.11
28630;BME280;15817;42.130;24.762;2022-07-10T06:57:15;99426.47;;;22.71;65.41
28630;BME280;15817;42.130;24.762;2022-07-10T06:59:58;99420.38;;;22.67;65.42
28630;BME280;15817;42.130;24.762;2022-07-10T07:09:29;99417.88;;;22.79;64.75
28630;BME280;15817;42.130;24.762;2022-07-10T07:12:06;99418.75;;;22.79;64.90
28630;BME280;15817;42.130;24.762;2022-07-10T07:15:15;99421.06;;;22.85;64.70
28630;BME280;15817;42.130;24.762;2022-07-10T07:17:54;99402.38;;;22.81;65.18
28630;BME280;15817;42.130;24.762;2022-07-10T07:20:38;99397.84;;;22.81;64.61
28630;BME280;15817;42.130;24.762;2022-07-10T07:23:27;99403.25;;;22.81;64.69
28630;BME280;15817;42.130;24.762;2022-07-10T07:26:16;99413.25;;;22.95;65.18
28630;BME280;15817;42.130;24.762;2022-07-10T07:28:45;99415.72;;;22.98;64.71
28630;BME280;15817;42.130;24.762;2022-07-10T07:31:17;99404.13;;;22.96;64.67
28630;BME280;15817;42.130;24.762;2022-07-10T07:33:51;99414.56;;;23.02;64.61
28630;BME280;15817;42.130;24.762;2022-07-10T07:36:17;99407.13;;;23.05;64.42
28630;BME280;15817;42.130;24.762;2022-07-10T07:38:53;99407.91;;;23.07;64.54
28630;BME280;15817;42.130;24.762;2022-07-10T07:41:22;99402.56;;;23.06;64.42
28630;BME280;15817;42.130;24.762;2022-07-10T07:43:51;99397.88;;;23.08;64.20
28630;BME280;15817;42.130;24.762;2022-07-10T07:46:18;99403.72;;;23.16;64.74
28630;BME280;15817;42.130;24.762;2022-07-10T07:48:50;99399.94;;;23.19;64.59
28630;BME280;15817;42.130;24.762;2022-07-10T07:51:19;99402.44;;;23.22;63.83
28630;BME280;15817;42.130;24.762;2022-07-10T07:53:45;99394.88;;;23.27;63.26
28630;BME280;15817;42.130;24.762;2022-07-10T07:56:11;99414.81;;;23.40;62.92
28630;BME280;15817;42.130;24.762;2022-07-10T07:58:37;99410.56;;;23.50;63.32
28630;BME280;15817;42.130;24.762;2022-07-10T08:01:12;99399.31;;;23.69;63.27
28630;BME280;15817;42.130;24.762;2022-07-10T08:03:40;99396.59;;;23.96;62.30
28630;BME280;15817;42.130;24.762;2022-07-10T08:06:08;99398.38;;;24.09;61.34
28630;BME280;15817;42.130;24.762;2022-07-10T08:08:40;99410.75;;;24.13;60.67
28630;BME280;15817;42.130;24.762;2022-07-10T08:11:22;99396.63;;;24.08;60.90
28630;BME280;15817;42.130;24.762;2022-07-10T08:18:16;99408.84;;;24.28;59.85
28630;BME280;15817;42.130;24.762;2022-07-10T08:21:01;99399.41;;;24.34;60.07
28630;BME280;15817;42.130;24.762;2022-07-10T08:23:27;99400.72;;;24.66;59.71
28630;BME280;15817;42.130;24.762;2022-07-10T08:26:05;99405.31;;;24.66;59.88
28630;BME280;15817;42.130;24.762;2022-07-10T08:28:50;99404.75;;;24.61;60.39
28630;BME280;15817;42.130;24.762;2022-07-10T08:32:23;99391.47;;;24.43;59.86
28630;BME280;15817;42.130;24.762;2022-07-10T08:35:38;99398.00;;;24.41;59.35
28630;BME280;15817;42.130;24.762;2022-07-10T08:45:51;99400.50;;;24.44;58.90
28630;BME280;15817;42.130;24.762;2022-07-10T08:48:26;99406.59;;;24.47;58.07
28630;BME280;15817;42.130;24.762;2022-07-10T08:51:10;99399.84;;;24.53;58.85
28630;BME280;15817;42.130;24.762;2022-07-10T08:57:12;99407.56;;;24.84;59.20
28630;BME280;15817;42.130;24.762;2022-07-10T08:59:52;99406.59;;;24.98;58.15
28630;BME280;15817;42.130;24.762;2022-07-10T09:02:26;99410.66;;;25.29;58.08
28630;BME280;15817;42.130;24.762;2022-07-10T09:08:28;99408.59;;;25.93;54.96
28630;BME280;15817;42.130;24.762;2022-07-10T09:11:23;99423.78;;;26.43;52.95
28630;BME280;15817;42.130;24.762;2022-07-10T09:14:04;99401.72;;;26.35;53.15
28630;BME280;15817;42.130;24.762;2022-07-10T09:16:37;99412.63;;;26.35;52.81
28630;BME280;15817;42.130;24.762;2022-07-10T09:19:41;99420.50;;;26.27;52.57
28630;BME280;15817;42.130;24.762;2022-07-10T09:22:12;99415.84;;;26.05;52.80
28630;BME280;15817;42.130;24.762;2022-07-10T09:32:27;99426.69;;;25.94;53.63
28630;BME280;15817;42.130;24.762;2022-07-10T09:35:15;99430.41;;;25.93;54.55
28630;BME280;15817;42.130;24.762;2022-07-10T09:41:29;99426.00;;;26.03;55.14
28630;BME280;15817;42.130;24.762;2022-07-10T09:44:29;99428.25;;;25.85;58.16
28630;BME280;15817;42.130;24.762;2022-07-10T09:46:58;99430.09;;;25.85;57.52
28630;BME280;15817;42.130;24.762;2022-07-10T09:50:50;99425.06;;;25.91;55.18
28630;BME280;15817;42.130;24.762;2022-07-10T09:53:23;99423.34;;;25.90;57.90
28630;BME280;15817;42.130;24.762;2022-07-10T09:56:10;99422.53;;;25.77;57.84
28630;BME280;15817;42.130;24.762;2022-07-10T09:58:43;99424.19;;;25.67;55.91
28630;BME280;15817;42.130;24.762;2022-07-10T10:01:20;99427.47;;;25.59;56.93
28630;BME280;15817;42.130;24.762;2022-07-10T10:04:18;99416.13;;;25.66;58.57
28630;BME280;15817;42.130;24.762;2022-07-10T10:07:01;99417.44;;;25.60;56.99
28630;BME280;15817;42.130;24.762;2022-07-10T10:13:03;99424.53;;;25.63;56.62
28630;BME280;15817;42.130;24.762;2022-07-10T10:15:38;99432.38;;;25.67;57.16
28630;BME280;15817;42.130;24.762;2022-07-10T10:18:24;99414.72;;;25.73;59.48
28630;BME280;15817;42.130;24.762;2022-07-10T10:20:55;99416.13;;;25.89;58.64
28630;BME280;15817;42.130;24.762;2022-07-10T10:23:28;99415.75;;;25.83;56.53
28630;BME280;15817;42.130;24.762;2022-07-10T10:26:38;99400.88;;;25.87;54.88
28630;BME280;15817;42.130;24.762;2022-07-10T10:30:03;99408.38;;;25.96;54.80
28630;BME280;15817;42.130;24.762;2022-07-10T10:32:51;99410.84;;;25.99;54.48
28630;BME280;15817;42.130;24.762;2022-07-10T10:35:47;99402.94;;;26.31;53.44
28630;BME280;15817;42.130;24.762;2022-07-10T10:44:19;99385.28;;;26.70;52.15
28630;BME280;15817;42.130;24.762;2022-07-10T10:50:01;99398.34;;;27.22;50.16
28630;BME280;15817;42.130;24.762;2022-07-10T10:52:30;99396.66;;;27.75;47.96
28630;BME280;15817;42.130;24.762;2022-07-10T10:55:03;99380.84;;;28.11;46.12
28630;BME280;15817;42.130;24.762;2022-07-10T10:57:34;99385.88;;;28.68;45.64
28630;BME280;15817;42.130;24.762;2022-07-10T11:00:33;99368.47;;;28.49;45.61
28630;BME280;15817;42.130;24.762;2022-07-10T11:03:14;99377.47;;;28.81;43.47
28630;BME280;15817;42.130;24.762;2022-07-10T11:05:41;99365.06;;;28.56;43.93
28630;BME280;15817;42.130;24.762;2022-07-10T11:08:08;99369.75;;;28.44;42.65
28630;BME280;15817;42.130;24.762;2022-07-10T11:10:43;99364.78;;;28.80;42.31
28630;BME280;15817;42.130;24.762;2022-07-10T11:13:13;99354.84;;;28.79;42.20
28630;BME280;15817;42.130;24.762;2022-07-10T11:15:52;99353.09;;;28.78;42.68
28630;BME280;15817;42.130;24.762;2022-07-10T11:18:20;99349.16;;;28.50;43.17
28630;BME280;15817;42.130;24.762;2022-07-10T11:21:01;99345.00;;;28.25;42.96
28630;BME280;15817;42.130;24.762;2022-07-10T11:26:54;99345.75;;;27.63;43.71
28630;BME280;15817;42.130;24.762;2022-07-10T11:29:47;99340.47;;;27.39;45.32
28630;BME280;15817;42.130;24.762;2022-07-10T11:36:38;99345.28;;;29.04;41.58
28630;BME280;15817;42.130;24.762;2022-07-10T11:39:13;99333.94;;;29.18;40.95
28630;BME280;15817;42.130;24.762;2022-07-10T11:41:49;99338.75;;;29.35;41.28
28630;BME280;15817;42.130;24.762;2022-07-10T11:44:21;99332.75;;;29.51;41.47
28630;BME280;15817;42.130;24.762;2022-07-10T11:47:04;99323.94;;;29.67;40.74
28630;BME280;15817;42.130;24.762;2022-07-10T11:49:44;99321.94;;;29.59;39.70
28630;BME280;15817;42.130;24.762;2022-07-10T11:52:14;99312.38;;;29.44;39.77
28630;BME280;15817;42.130;24.762;2022-07-10T12:01:11;99314.38;;;28.83;41.62
28630;BME280;15817;42.130;24.762;2022-07-10T12:04:08;99326.84;;;29.06;40.17
28630;BME280;15817;42.130;24.762;2022-07-10T12:09:30;99308.47;;;28.57;39.79
28630;BME280;15817;42.130;24.762;2022-07-10T12:16:07;99305.25;;;28.52;41.95
28630;BME280;15817;42.130;24.762;2022-07-10T12:19:06;99298.66;;;28.54;41.88
28630;BME280;15817;42.130;24.762;2022-07-10T12:22:19;99297.28;;;28.18;42.76
28630;BME280;15817;42.130;24.762;2022-07-10T12:28:20;99289.13;;;28.49;41.13
28630;BME280;15817;42.130;24.762;2022-07-10T12:30:49;99298.00;;;28.71;40.65
28630;BME280;15817;42.130;24.762;2022-07-10T12:33:48;99287.56;;;28.86;41.11
28630;BME280;15817;42.130;24.762;2022-07-10T12:36:16;99283.69;;;28.58;40.33
28630;BME280;15817;42.130;24.762;2022-07-10T12:39:07;99281.75;;;28.19;42.15
28630;BME280;15817;42.130;24.762;2022-07-10T12:42:00;99295.06;;;27.91;42.35
28630;BME280;15817;42.130;24.762;2022-07-10T12:44:44;99295.03;;;27.70;42.85
28630;BME280;15817;42.130;24.762;2022-07-10T12:47:20;99284.66;;;27.53;43.90
28630;BME280;15817;42.130;24.762;2022-07-10T12:50:13;99292.50;;;27.47;43.61
28630;BME280;15817;42.130;24.762;2022-07-10T12:53:09;99282.16;;;27.61;43.76
28630;BME280;15817;42.130;24.762;2022-07-10T13:02:17;99268.81;;;28.21;41.04
28630;BME280;15817;42.130;24.762;2022-07-10T13:05:07;99276.31;;;28.49;40.37
28630;BME280;15817;42.130;24.762;2022-07-10T13:08:03;99273.50;;;28.70;40.81
28630;BME280;15817;42.130;24.762;2022-07-10T13:10:37;99267.72;;;28.63;41.03
28630;BME280;15817;42.130;24.762;2022-07-10T13:13:04;99253.22;;;28.72;39.70
28630;BME280;15817;42.130;24.762;2022-07-10T13:15:34;99255.41;;;28.78;39.38
28630;BME280;15817;42.130;24.762;2022-07-10T13:18:14;99246.41;;;28.67;40.44
28630;BME280;15817;42.130;24.762;2022-07-10T13:24:16;99250.22;;;28.85;40.54
28630;BME280;15817;42.130;24.762;2022-07-10T13:26:52;99249.84;;;28.59;41.03
28630;BME280;15817;42.130;24.762;2022-07-10T13:29:26;99241.69;;;28.38;41.27
28630;BME280;15817;42.130;24.762;2022-07-10T13:32:35;99233.38;;;28.19;41.60
28630;BME280;15817;42.130;24.762;2022-07-10T13:34:52;99239.91;;;28.07;42.07
28630;BME280;15817;42.130;24.762;2022-07-10T13:37:28;99238.59;;;28.01;42.47
28630;BME280;15817;42.130;24.762;2022-07-10T13:39:54;99241.84;;;27.95;42.06
28630;BME280;15817;42.130;24.762;2022-07-10T13:42:26;99239.53;;;27.91;41.52
28630;BME280;15817;42.130;24.762;2022-07-10T13:45:00;99238.31;;;27.84;41.83
28630;BME280;15817;42.130;24.762;2022-07-10T13:47:35;99243.66;;;27.85;41.90
28630;BME280;15817;42.130;24.762;2022-07-10T13:50:39;99238.31;;;27.84;41.86
28630;BME280;15817;42.130;24.762;2022-07-10T13:53:33;99240.84;;;27.96;41.48
28630;BME280;15817;42.130;24.762;2022-07-10T13:56:06;99236.91;;;28.10;40.86
28630;BME280;15817;42.130;24.762;2022-07-10T13:58:40;99242.94;;;28.25;40.21
28630;BME280;15817;42.130;24.762;2022-07-10T14:01:09;99243.31;;;28.51;39.30
28630;BME280;15817;42.130;24.762;2022-07-10T14:12:04;99232.00;;;28.25;40.21
28630;BME280;15817;42.130;24.762;2022-07-10T14:14:31;99238.38;;;28.14;40.92
28630;BME280;15817;42.130;24.762;2022-07-10T14:17:14;99237.16;;;28.07;39.99
28630;BME280;15817;42.130;24.762;2022-07-10T14:20:00;99230.03;;;27.95;40.54
28630;BME280;15817;42.130;24.762;2022-07-10T14:22:38;99229.47;;;27.91;40.29
28630;BME280;15817;42.130;24.762;2022-07-10T14:25:13;99240.09;;;27.94;39.88
28630;BME280;15817;42.130;24.762;2022-07-10T14:27:48;99234.13;;;27.80;39.53
28630;BME280;15817;42.130;24.762;2022-07-10T14:30:31;99233.66;;;27.74;39.84
28630;BME280;15817;42.130;24.762;2022-07-10T14:33:05;99234.03;;;27.70;40.18
28630;BME280;15817;42.130;24.762;2022-07-10T14:36:31;99244.97;;;27.70;40.42
28630;BME280;15817;42.130;24.762;2022-07-10T14:43:14;99236.44;;;27.63;41.63
28630;BME280;15817;42.130;24.762;2022-07-10T14:49:38;99232.63;;;27.55;42.43
28630;BME280;15817;42.130;24.762;2022-07-10T14:56:34;99244.06;;;27.49;42.37
28630;BME280;15817;42.130;24.762;2022-07-10T15:02:24;99264.34;;;27.35;42.63
28630;BME280;15817;42.130;24.762;2022-07-10T15:04:52;99262.97;;;27.09;46.63
28630;BME280;15817;42.130;24.762;2022-07-10T15:07:40;99290.53;;;26.83;53.75
28630;BME280;15817;42.130;24.762;2022-07-10T15:13:24;99287.13;;;26.24;56.56
28630;BME280;15817;42.130;24.762;2022-07-10T15:15:57;99292.66;;;26.00;59.69
28630;BME280;15817;42.130;24.762;2022-07-10T15:18:27;99296.25;;;25.89;59.86
28630;BME280;15817;42.130;24.762;2022-07-10T15:21:09;99296.47;;;25.86;60.79
28630;BME280;15817;42.130;24.762;2022-07-10T15:59:58;99276.78;;;25.59;63.22
28630;BME280;15817;42.130;24.762;2022-07-10T16:06:08;99287.69;;;25.59;62.42
28630;BME280;15817;42.130;24.762;2022-07-10T16:08:56;99281.47;;;25.57;60.83
28630;BME280;15817;42.130;24.762;2022-07-10T16:11:38;99286.81;;;25.58;60.81
28630;BME280;15817;42.130;24.762;2022-07-10T16:21:38;99279.38;;;25.49;57.30
28630;BME280;15817;42.130;24.762;2022-07-10T16:24:33;99287.53;;;25.49;57.09
28630;BME280;15817;42.130;24.762;2022-07-10T16:26:59;99282.31;;;25.46;56.27
28630;BME280;15817;42.130;24.762;2022-07-10T16:29:38;99291.34;;;25.47;56.40
28630;BME280;15817;42.130;24.762;2022-07-10T16:32:10;99294.47;;;25.53;56.34
28630;BME280;15817;42.130;24.762;2022-07-10T16:34:36;99287.38;;;25.51;56.35
28630;BME280;15817;42.130;24.762;2022-07-10T16:45:11;99310.69;;;25.55;56.78